Terminal Aerodrome Forecast
Issued by NWS Charleston, WV

Current Version | Previous Version | Text Only | Print | Product List | Glossary Off
Versions: 1 2 3 4 5 6 7 8 9 10 11 12 13 14 15 16 17 18 19 20 21 22 23 24 25 26 27 28 29 30

000
FTUS41 KRLX 291400 AAA
TAFEKN
TAF AMD
KEKN 291443Z 2915/3012 16006KT P6SM BKN150
     FM291900 18008G18KT P6SM -RA OVC050
     FM292100 19010G18KT P6SM OVC040
     FM300200 27011G20KT P6SM OVC025
     FM300400 26012G22KT P6SM -RA OVC015
     FM300700 28013G23KT 4SM -SN OVC012
     FM300800 28013G23KT 1SM -SN OVC010=

USA.gov is the U.S. government's official web portal to all federal, state and local government web resources and services.